createdAt,value
2023-09-06T00:02:23.567Z,16.07
2023-09-06T00:04:51.774Z,16.03
2023-09-06T00:07:19.390Z,16.01
2023-09-06T00:09:46.861Z,15.98
2023-09-06T00:12:14.225Z,15.96
2023-09-06T00:14:41.637Z,15.93
2023-09-06T00:17:09.806Z,15.91
2023-09-06T00:19:37.215Z,15.88
2023-09-06T00:22:04.656Z,15.84
2023-09-06T00:24:32.636Z,15.78
2023-09-06T00:27:04.602Z,15.73
2023-09-06T00:29:33.673Z,15.67
2023-09-06T00:32:01.099Z,15.63
2023-09-06T00:34:28.587Z,15.60
2023-09-06T00:36:56.035Z,15.54
2023-09-06T00:39:24.612Z,15.50
2023-09-06T00:41:52.131Z,15.46
2023-09-06T00:44:20.998Z,15.41
2023-09-06T00:46:48.890Z,15.37
2023-09-06T00:49:16.610Z,15.34
2023-09-06T00:51:44.336Z,15.31
2023-09-06T00:54:11.998Z,15.28
2023-09-06T00:56:40.820Z,15.26
2023-09-06T00:59:13.902Z,15.23
2023-09-06T01:01:41.462Z,15.21
2023-09-06T01:04:10.010Z,15.20
2023-09-06T01:06:39.857Z,15.20
2023-09-06T01:09:07.832Z,15.19
2023-09-06T01:11:38.723Z,15.18
2023-09-06T01:14:06.309Z,15.15
2023-09-06T01:16:46.775Z,15.11
2023-09-06T01:19:15.991Z,15.09
2023-09-06T01:21:53.571Z,15.06
2023-09-06T01:24:22.236Z,15.04
2023-09-06T01:26:50.013Z,15.03
2023-09-06T01:29:18.895Z,15.01
2023-09-06T01:31:46.324Z,15.01
2023-09-06T01:34:14.003Z,15.02
2023-09-06T01:36:41.573Z,15.02
2023-09-06T01:39:11.882Z,15.02
2023-09-06T01:41:39.315Z,15.01
2023-09-06T01:44:06.743Z,14.99
2023-09-06T01:46:34.256Z,14.96
2023-09-06T01:49:01.803Z,14.95
2023-09-06T01:51:29.242Z,14.92
2023-09-06T01:53:56.674Z,14.91
2023-09-06T01:56:24.107Z,14.89
2023-09-06T01:58:51.554Z,14.87
2023-09-06T02:01:20.279Z,14.83
2023-09-06T02:03:48.414Z,14.80
2023-09-06T02:06:16.043Z,14.76
2023-09-06T02:08:43.503Z,14.74
2023-09-06T02:11:11.232Z,14.71
2023-09-06T02:13:38.799Z,14.68
2023-09-06T02:16:07.958Z,14.64
2023-09-06T02:18:35.600Z,14.60
2023-09-06T02:21:03.036Z,14.57
2023-09-06T02:23:30.521Z,14.56
2023-09-06T02:25:58.799Z,14.54
2023-09-06T02:28:26.499Z,14.50
2023-09-06T02:30:54.205Z,14.48
2023-09-06T02:33:21.814Z,14.45
2023-09-06T02:35:50.551Z,14.41
2023-09-06T02:38:18.101Z,14.39
2023-09-06T02:40:45.651Z,14.38
2023-09-06T02:43:14.692Z,14.36
2023-09-06T02:45:51.799Z,14.36
2023-09-06T02:48:20.284Z,14.33
2023-09-06T02:50:48.788Z,14.31
2023-09-06T02:53:28.262Z,14.28
2023-09-06T02:56:00.339Z,14.24
2023-09-06T02:58:28.751Z,14.21
2023-09-06T03:01:00.483Z,14.18
2023-09-06T03:03:29.418Z,14.16
2023-09-06T03:06:00.843Z,14.12
2023-09-06T03:08:33.698Z,14.10
2023-09-06T03:11:02.258Z,14.08
2023-09-06T03:13:30.684Z,14.06
2023-09-06T03:16:05.242Z,14.04
2023-09-06T03:18:45.928Z,14.00
2023-09-06T03:21:22.820Z,13.97
2023-09-06T03:23:52.701Z,13.95
2023-09-06T03:26:24.096Z,13.93
2023-09-06T03:28:56.100Z,13.92
2023-09-06T03:31:26.270Z,13.90
2023-09-06T03:33:53.905Z,13.89
2023-09-06T03:36:25.894Z,13.88
2023-09-06T03:38:53.322Z,13.86
2023-09-06T03:41:20.844Z,13.86
2023-09-06T03:43:48.295Z,13.87
2023-09-06T03:46:17.905Z,13.87
2023-09-06T03:48:46.809Z,13.87
2023-09-06T03:51:15.295Z,13.87
2023-09-06T03:53:43.491Z,13.86
2023-09-06T03:56:11.777Z,13.83
2023-09-06T03:58:42.007Z,13.80
2023-09-06T04:01:13.053Z,13.79
2023-09-06T04:03:41.736Z,13.77
2023-09-06T04:06:12.190Z,13.76
2023-09-06T04:08:40.204Z,13.74
2023-09-06T04:11:08.471Z,13.74
2023-09-06T04:13:36.657Z,13.74
2023-09-06T04:16:07.181Z,13.75
2023-09-06T04:18:36.184Z,13.76
2023-09-06T04:21:09.552Z,13.75
2023-09-06T04:23:41.429Z,13.76
2023-09-06T04:26:09.106Z,13.78
2023-09-06T04:28:36.959Z,13.79
2023-09-06T04:31:05.658Z,13.78
2023-09-06T04:33:33.282Z,13.78
2023-09-06T04:36:02.413Z,13.80
2023-09-06T04:38:32.475Z,13.83
2023-09-06T04:41:03.850Z,13.87
2023-09-06T04:43:31.693Z,13.92
2023-09-06T04:46:00.814Z,13.96
2023-09-06T04:48:28.673Z,14.01
2023-09-06T04:50:58.178Z,14.06
2023-09-06T04:53:26.052Z,14.10
2023-09-06T04:55:53.932Z,14.15
2023-09-06T04:58:21.828Z,14.20
2023-09-06T05:00:50.129Z,14.26
2023-09-06T05:03:19.414Z,14.32
2023-09-06T05:05:48.856Z,14.40
2023-09-06T05:08:17.734Z,14.47
2023-09-06T05:10:45.621Z,14.53
2023-09-06T05:13:13.291Z,14.59
2023-09-06T05:15:41.046Z,14.66
2023-09-06T05:18:09.572Z,14.74
2023-09-06T05:20:40.991Z,14.82
2023-09-06T05:23:11.600Z,14.91
2023-09-06T05:25:40.447Z,14.98
2023-09-06T05:28:10.810Z,15.06
2023-09-06T05:30:46.062Z,15.15
2023-09-06T05:33:16.087Z,15.24
2023-09-06T05:35:45.198Z,15.33
2023-09-06T05:38:12.762Z,15.42
2023-09-06T05:40:44.822Z,15.50
2023-09-06T05:43:13.803Z,15.59
2023-09-06T05:45:41.351Z,15.67
2023-09-06T05:48:12.160Z,15.76
2023-09-06T05:50:40.198Z,15.85
2023-09-06T05:53:07.869Z,15.94
2023-09-06T05:55:40.913Z,16.02
2023-09-06T05:58:10.762Z,16.13
2023-09-06T06:00:38.266Z,16.21
2023-09-06T06:03:06.827Z,16.31
2023-09-06T06:05:35.113Z,16.40
2023-09-06T06:08:04.500Z,16.49
2023-09-06T06:10:36.440Z,16.57
2023-09-06T06:13:05.764Z,16.66
2023-09-06T06:15:33.380Z,16.75
2023-09-06T06:18:00.868Z,16.84
2023-09-06T06:20:38.580Z,16.93
2023-09-06T06:23:14.268Z,17.02
2023-09-06T06:25:41.800Z,17.11
2023-09-06T06:28:09.621Z,17.18
2023-09-06T06:30:37.265Z,17.26
2023-09-06T06:33:08.225Z,17.34
2023-09-06T06:35:36.279Z,17.41
2023-09-06T06:38:04.084Z,17.49
2023-09-06T06:40:36.742Z,17.56
2023-09-06T06:43:04.460Z,17.63
2023-09-06T06:45:31.992Z,17.72
2023-09-06T06:48:02.508Z,17.81
2023-09-06T06:50:30.759Z,17.89
2023-09-06T06:52:58.656Z,17.98
2023-09-06T06:55:26.511Z,18.08
2023-09-06T06:57:54.018Z,18.18
2023-09-06T07:00:23.023Z,18.27
2023-09-06T07:02:50.668Z,18.37
2023-09-06T07:05:21.336Z,18.47
2023-09-06T07:07:49.785Z,18.58
2023-09-06T07:10:18.927Z,18.69
2023-09-06T07:12:46.360Z,18.80
2023-09-06T07:15:14.073Z,18.90
2023-09-06T07:17:42.730Z,19.03
2023-09-06T07:20:11.690Z,19.15
2023-09-06T07:22:39.331Z,19.28
2023-09-06T07:25:09.068Z,19.40
2023-09-06T07:27:46.521Z,19.50
2023-09-06T07:30:14.082Z,19.62
2023-09-06T07:32:41.762Z,19.72
2023-09-06T07:35:10.018Z,19.82
2023-09-06T07:37:37.735Z,19.93
2023-09-06T07:40:07.447Z,20.05
2023-09-06T07:42:39.124Z,20.15
2023-09-06T07:45:08.300Z,20.25
2023-09-06T07:47:36.214Z,20.34
2023-09-06T07:50:13.908Z,20.45
2023-09-06T07:52:41.699Z,20.56
2023-09-06T07:55:14.097Z,20.66
2023-09-06T07:57:41.813Z,20.78
2023-09-06T08:00:09.852Z,20.91
2023-09-06T08:02:37.497Z,21.05
2023-09-06T08:05:05.854Z,21.20
2023-09-06T08:07:33.628Z,21.36
2023-09-06T08:10:02.528Z,21.55
2023-09-06T08:12:30.013Z,21.73
2023-09-06T08:15:00.189Z,21.92
2023-09-06T08:17:28.434Z,22.13
2023-09-06T08:19:59.685Z,22.32
2023-09-06T08:22:35.811Z,22.50
2023-09-06T08:25:14.774Z,22.73
2023-09-06T08:27:45.625Z,22.93
2023-09-06T08:30:16.548Z,23.14
2023-09-06T08:32:46.760Z,23.30
2023-09-06T08:35:15.047Z,23.51
2023-09-06T08:37:42.640Z,23.62
2023-09-06T08:40:11.659Z,23.78
2023-09-06T08:42:39.710Z,24.00
2023-09-06T08:45:09.788Z,24.16
2023-09-06T08:47:41.910Z,24.34
2023-09-06T08:50:11.265Z,24.52
2023-09-06T08:52:44.174Z,24.70
2023-09-06T08:55:13.103Z,24.98
2023-09-06T08:57:43.067Z,25.25
2023-09-06T09:00:14.966Z,25.42
2023-09-06T09:02:43.933Z,25.47
2023-09-06T09:05:19.876Z,25.48
2023-09-06T09:07:57.106Z,25.36
2023-09-06T09:10:27.501Z,25.26
2023-09-06T09:12:59.375Z,25.28
2023-09-06T09:15:27.342Z,25.31
2023-09-06T09:20:27.766Z,25.55
2023-09-06T09:23:02.123Z,25.70
2023-09-06T09:25:29.603Z,25.75
2023-09-06T09:27:58.803Z,25.67
2023-09-06T09:30:31.433Z,25.67
2023-09-06T09:33:03.403Z,25.58
2023-09-06T09:35:35.904Z,25.49
2023-09-06T09:38:06.015Z,25.47
2023-09-06T09:40:46.462Z,25.60
2023-09-06T09:43:20.221Z,25.72
2023-09-06T09:45:48.546Z,26.00
2023-09-06T09:48:17.743Z,26.12
2023-09-06T09:50:48.419Z,26.22
2023-09-06T09:53:22.780Z,26.45
2023-09-06T09:55:56.899Z,26.62
2023-09-06T09:58:28.617Z,26.83
2023-09-06T10:01:00.459Z,27.01
2023-09-06T10:03:31.508Z,27.26
2023-09-06T10:06:02.297Z,27.51
2023-09-06T10:08:33.435Z,27.64
2023-09-06T10:11:00.869Z,27.78
2023-09-06T10:13:29.834Z,27.93
2023-09-06T10:15:58.267Z,28.11
2023-09-06T10:18:26.293Z,28.35
2023-09-06T10:20:54.857Z,28.59
2023-09-06T10:23:22.555Z,28.61
2023-09-06T10:25:55.043Z,28.53
2023-09-06T10:28:32.183Z,28.49
2023-09-06T10:31:08.988Z,28.70
2023-09-06T10:33:37.234Z,28.96
2023-09-06T10:36:14.629Z,29.03
2023-09-06T10:38:59.782Z,29.01
2023-09-06T10:41:27.961Z,29.10
2023-09-06T10:43:59.179Z,29.09
2023-09-06T10:46:29.776Z,28.89
2023-09-06T10:49:13.858Z,28.95
2023-09-06T10:51:59.247Z,29.06
2023-09-06T10:54:44.795Z,28.86
2023-09-06T10:57:16.316Z,28.85
2023-09-06T10:59:57.949Z,29.00
2023-09-06T11:02:28.015Z,28.91
2023-09-06T11:05:32.472Z,28.72
2023-09-06T11:08:01.174Z,28.72
2023-09-06T11:10:29.118Z,28.94
2023-09-06T11:12:58.487Z,29.20
2023-09-06T11:15:26.597Z,29.47
2023-09-06T11:18:00.984Z,29.55
2023-09-06T11:20:30.921Z,29.60
2023-09-06T11:23:00.885Z,29.90
2023-09-06T11:25:29.861Z,30.16
2023-09-06T11:28:01.117Z,30.39
2023-09-06T11:30:32.666Z,30.20
2023-09-06T11:33:00.573Z,30.09
2023-09-06T11:35:34.615Z,30.26
2023-09-06T11:38:09.747Z,30.56
2023-09-06T11:40:37.661Z,30.76
2023-09-06T11:43:09.217Z,30.75
2023-09-06T11:45:39.642Z,30.67
2023-09-06T11:48:15.933Z,30.74
2023-09-06T11:50:45.147Z,30.97
2023-09-06T11:53:14.901Z,31.12
2023-09-06T11:55:46.960Z,31.23
2023-09-06T11:58:17.884Z,31.41
2023-09-06T12:00:51.680Z,31.72
2023-09-06T12:03:28.248Z,31.90
2023-09-06T12:06:07.206Z,31.73
2023-09-06T12:08:36.358Z,31.61
2023-09-06T12:11:09.042Z,31.43
2023-09-06T12:13:38.962Z,31.40
2023-09-06T12:16:09.331Z,31.27
2023-09-06T12:18:38.626Z,31.23
2023-09-06T12:21:08.404Z,31.36
2023-09-06T12:23:38.704Z,31.54
2023-09-06T12:26:06.855Z,31.70
2023-09-06T12:28:35.103Z,31.91
2023-09-06T12:31:16.652Z,32.13
2023-09-06T12:33:48.950Z,32.18
2023-09-06T12:36:18.615Z,31.88
2023-09-06T12:38:47.019Z,31.66
2023-09-06T12:41:15.005Z,31.53
2023-09-06T12:43:42.484Z,31.63
2023-09-06T12:46:12.353Z,32.07
2023-09-06T12:48:40.260Z,32.23
2023-09-06T12:51:08.526Z,32.19
2023-09-06T12:53:36.636Z,32.16
2023-09-06T12:56:04.514Z,31.97
2023-09-06T12:58:33.563Z,32.43
2023-09-06T13:01:04.027Z,33.43
2023-09-06T13:03:31.772Z,34.33
2023-09-06T13:06:02.182Z,34.98
2023-09-06T13:08:32.169Z,35.53
2023-09-06T13:11:00.291Z,36.21
2023-09-06T13:13:27.831Z,36.61
2023-09-06T13:15:55.331Z,36.97
2023-09-06T13:18:23.064Z,37.44
2023-09-06T13:20:55.079Z,38.00
2023-09-06T13:23:22.536Z,38.61
2023-09-06T13:25:50.072Z,39.53
2023-09-06T13:28:18.340Z,40.15
2023-09-06T13:30:45.878Z,40.48
2023-09-06T13:33:13.459Z,40.53
2023-09-06T13:35:40.960Z,40.45
2023-09-06T13:38:08.488Z,40.51
2023-09-06T13:40:36.038Z,40.61
2023-09-06T13:43:04.153Z,40.67
2023-09-06T13:45:31.723Z,40.85
2023-09-06T13:47:59.238Z,41.05
2023-09-06T13:50:26.853Z,41.21
2023-09-06T13:52:54.327Z,41.39
2023-09-06T13:55:21.840Z,41.72
2023-09-06T13:57:49.353Z,42.14
2023-09-06T14:00:17.667Z,42.57
2023-09-06T14:02:45.343Z,42.94
2023-09-06T14:05:13.146Z,43.40
2023-09-06T14:07:40.798Z,43.96
2023-09-06T14:10:08.767Z,44.62
2023-09-06T14:12:36.193Z,44.90
2023-09-06T14:15:04.303Z,45.10
2023-09-06T14:17:31.837Z,45.15
2023-09-06T14:19:59.723Z,44.55
2023-09-06T14:22:27.735Z,43.74
2023-09-06T14:24:55.219Z,42.73
2023-09-06T14:27:22.808Z,41.68
2023-09-06T14:29:53.214Z,40.69
2023-09-06T14:32:22.258Z,39.72
2023-09-06T14:34:49.848Z,39.15
2023-09-06T14:37:17.465Z,39.53
2023-09-06T14:39:45.539Z,39.94
2023-09-06T14:42:12.993Z,40.06
2023-09-06T14:44:40.531Z,40.36
2023-09-06T14:47:08.252Z,40.07
2023-09-06T14:49:35.798Z,39.30
2023-09-06T14:52:05.718Z,38.36
2023-09-06T14:54:33.225Z,37.58
2023-09-06T14:57:00.681Z,36.88
2023-09-06T14:59:28.605Z,36.19
2023-09-06T15:01:56.106Z,35.53
2023-09-06T15:04:23.650Z,35.35
2023-09-06T15:06:59.823Z,36.11
2023-09-06T15:09:28.340Z,37.18
2023-09-06T15:11:56.339Z,38.15
2023-09-06T15:14:25.080Z,39.07
2023-09-06T15:16:52.694Z,39.82
2023-09-06T15:19:20.700Z,40.42
2023-09-06T15:21:48.178Z,41.06
2023-09-06T15:24:15.681Z,41.67
2023-09-06T15:26:43.178Z,42.12
2023-09-06T15:29:10.610Z,42.56
2023-09-06T15:31:38.074Z,42.93
2023-09-06T15:34:05.565Z,43.08
2023-09-06T15:36:33.006Z,42.89
2023-09-06T15:39:00.544Z,42.72
2023-09-06T15:41:33.206Z,42.86
2023-09-06T15:44:05.944Z,43.10
2023-09-06T15:46:33.962Z,43.44
2023-09-06T15:49:01.633Z,43.79
2023-09-06T15:51:29.785Z,43.98
2023-09-06T15:53:57.334Z,44.16
2023-09-06T15:56:24.799Z,44.24
2023-09-06T15:58:54.491Z,44.10
2023-09-06T16:01:22.215Z,44.15
2023-09-06T16:03:50.025Z,44.23
2023-09-06T16:06:17.479Z,44.24
2023-09-06T16:08:45.011Z,44.31
2023-09-06T16:11:12.805Z,44.30
2023-09-06T16:13:40.290Z,44.09
2023-09-06T16:16:07.789Z,43.85
2023-09-06T16:18:35.333Z,43.74
2023-09-06T16:21:02.789Z,43.64
2023-09-06T16:23:30.285Z,43.35
2023-09-06T16:25:57.828Z,43.00
2023-09-06T16:28:26.559Z,42.74
2023-09-06T16:30:54.027Z,42.52
2023-09-06T16:33:21.534Z,42.11
2023-09-06T16:35:49.030Z,41.70
2023-09-06T16:38:17.681Z,41.26
2023-09-06T16:40:45.862Z,40.79
2023-09-06T16:43:13.919Z,40.29
2023-09-06T16:45:41.699Z,39.84
2023-09-06T16:48:09.350Z,39.37
2023-09-06T16:50:37.028Z,38.83
2023-09-06T16:53:07.314Z,38.23
2023-09-06T16:55:34.832Z,37.63
2023-09-06T16:58:07.753Z,37.02
2023-09-06T17:00:37.666Z,36.40
2023-09-06T17:03:07.443Z,35.74
2023-09-06T17:05:35.848Z,34.92
2023-09-06T17:08:03.743Z,34.02
2023-09-06T17:10:34.372Z,33.16
2023-09-06T17:13:03.168Z,32.36
2023-09-06T17:15:32.915Z,31.63
2023-09-06T17:18:00.550Z,30.96
2023-09-06T17:20:28.235Z,30.35
2023-09-06T17:22:59.307Z,29.78
2023-09-06T17:25:27.118Z,29.22
2023-09-06T17:27:55.163Z,28.77
2023-09-06T17:30:24.289Z,28.30
2023-09-06T17:33:16.289Z,27.87
2023-09-06T17:35:49.912Z,27.46
2023-09-06T17:38:18.813Z,27.03
2023-09-06T17:40:48.322Z,26.70
2023-09-06T17:43:17.388Z,26.35
2023-09-06T17:45:50.161Z,26.07
2023-09-06T17:48:19.931Z,25.74
2023-09-06T17:50:54.020Z,25.47
2023-09-06T17:53:26.442Z,25.20
2023-09-06T17:56:08.957Z,24.94
2023-09-06T17:58:38.740Z,24.68
2023-09-06T18:01:12.191Z,24.44
2023-09-06T18:03:41.967Z,24.22
2023-09-06T18:06:10.996Z,23.98
2023-09-06T18:08:39.784Z,23.73
2023-09-06T18:11:08.109Z,23.51
2023-09-06T18:13:37.955Z,23.31
2023-09-06T18:16:07.041Z,23.14
2023-09-06T18:18:35.213Z,22.97
2023-09-06T18:21:05.066Z,22.82
2023-09-06T18:23:33.651Z,22.68
2023-09-06T18:26:01.413Z,22.57
2023-09-06T18:28:30.508Z,22.45
2023-09-06T18:30:59.929Z,22.31
2023-09-06T18:33:27.715Z,22.19
2023-09-06T18:35:56.331Z,22.06
2023-09-06T18:38:25.602Z,21.95
2023-09-06T18:40:56.801Z,21.84
2023-09-06T18:43:25.208Z,21.73
2023-09-06T18:45:53.701Z,21.59
2023-09-06T18:48:23.219Z,21.49
2023-09-06T18:50:51.655Z,21.39
2023-09-06T18:53:21.537Z,21.31
2023-09-06T18:55:48.992Z,21.20
2023-09-06T18:58:19.593Z,21.11
2023-09-06T19:00:47.534Z,21.02
2023-09-06T19:03:16.641Z,20.94
2023-09-06T19:05:44.753Z,20.87
2023-09-06T19:08:14.419Z,20.79
2023-09-06T19:10:43.221Z,20.71
2023-09-06T19:13:11.822Z,20.65
2023-09-06T19:15:39.663Z,20.60
2023-09-06T19:18:07.658Z,20.53
2023-09-06T19:20:37.618Z,20.48
2023-09-06T19:23:07.893Z,20.43
2023-09-06T19:25:42.936Z,20.38
2023-09-06T19:28:11.405Z,20.32
2023-09-06T19:30:38.894Z,20.26
2023-09-06T19:33:06.417Z,20.21
2023-09-06T19:35:35.713Z,20.16
2023-09-06T19:38:05.718Z,20.12
2023-09-06T19:40:33.270Z,20.07
2023-09-06T19:43:01.571Z,20.02
2023-09-06T19:45:29.637Z,19.96
2023-09-06T19:47:57.200Z,19.90
2023-09-06T19:50:24.911Z,19.84
2023-09-06T19:52:52.788Z,19.77
2023-09-06T19:55:22.971Z,19.71
2023-09-06T19:57:50.603Z,19.65
2023-09-06T20:00:18.155Z,19.60
2023-09-06T20:02:45.883Z,19.53
2023-09-06T20:05:13.907Z,19.48
2023-09-06T20:07:41.540Z,19.42
2023-09-06T20:10:10.061Z,19.37
2023-09-06T20:12:37.541Z,19.30
2023-09-06T20:15:05.617Z,19.23
2023-09-06T20:17:33.332Z,19.17
2023-09-06T20:20:01.235Z,19.12
2023-09-06T20:22:28.772Z,19.08
2023-09-06T20:24:56.234Z,19.06
2023-09-06T20:27:23.956Z,19.04
2023-09-06T20:29:51.702Z,19.01
2023-09-06T20:32:19.286Z,18.98
2023-09-06T20:34:46.728Z,18.95
2023-09-06T20:37:14.256Z,18.89
2023-09-06T20:39:42.316Z,18.85
2023-09-06T20:42:10.148Z,18.81
2023-09-06T20:44:37.697Z,18.79
2023-09-06T20:47:05.359Z,18.77
2023-09-06T20:49:33.244Z,18.76
2023-09-06T20:52:00.819Z,18.76
2023-09-06T20:54:28.347Z,18.75
2023-09-06T20:56:55.811Z,18.75
2023-09-06T20:59:23.545Z,18.74
2023-09-06T21:01:51.046Z,18.73
2023-09-06T21:04:18.595Z,18.71
2023-09-06T21:06:46.316Z,18.69
2023-09-06T21:09:14.439Z,18.67
2023-09-06T21:11:42.039Z,18.64
2023-09-06T21:14:09.543Z,18.61
2023-09-06T21:16:37.088Z,18.55
2023-09-06T21:19:04.800Z,18.52
2023-09-06T21:21:32.371Z,18.47
2023-09-06T21:24:00.059Z,18.42
2023-09-06T21:26:27.617Z,18.38
2023-09-06T21:28:57.016Z,18.33
2023-09-06T21:31:25.421Z,18.28
2023-09-06T21:33:52.960Z,18.23
2023-09-06T21:36:20.543Z,18.20
2023-09-06T21:38:48.225Z,18.18
2023-09-06T21:41:15.686Z,18.17
2023-09-06T21:43:43.134Z,18.17
2023-09-06T21:46:10.609Z,18.15
2023-09-06T21:48:38.138Z,18.14
2023-09-06T21:51:14.179Z,18.12
2023-09-06T21:53:41.607Z,18.10
2023-09-06T21:56:10.336Z,18.08
2023-09-06T21:58:38.197Z,18.06
2023-09-06T22:01:06.373Z,18.05
2023-09-06T22:03:34.793Z,18.04
2023-09-06T22:06:04.442Z,18.05
2023-09-06T22:08:32.352Z,18.06
2023-09-06T22:11:00.173Z,18.08
2023-09-06T22:13:27.675Z,18.09
2023-09-06T22:15:55.700Z,18.11
2023-09-06T22:18:23.315Z,18.13
2023-09-06T22:20:50.802Z,18.14
2023-09-06T22:23:18.321Z,18.16
2023-09-06T22:25:45.810Z,18.17
2023-09-06T22:28:13.414Z,18.19
2023-09-06T22:30:42.878Z,18.20
2023-09-06T22:33:10.742Z,18.23
2023-09-06T22:35:38.395Z,18.24
2023-09-06T22:38:05.867Z,18.26
2023-09-06T22:40:34.640Z,18.28
2023-09-06T22:43:02.145Z,18.29
2023-09-06T22:45:29.611Z,18.28
2023-09-06T22:47:57.133Z,18.27
2023-09-06T22:50:24.609Z,18.25
2023-09-06T22:52:52.072Z,18.24
2023-09-06T22:55:19.556Z,18.22
2023-09-06T22:57:47.049Z,18.21
2023-09-06T23:00:14.659Z,18.20
2023-09-06T23:02:43.467Z,18.17
2023-09-06T23:05:11.179Z,18.14
2023-09-06T23:07:38.659Z,18.11
2023-09-06T23:10:10.147Z,18.08
2023-09-06T23:12:40.639Z,18.05
2023-09-06T23:15:09.543Z,18.02
2023-09-06T23:17:39.874Z,18.00
2023-09-06T23:20:20.460Z,17.97
2023-09-06T23:22:51.220Z,17.94
2023-09-06T23:25:22.641Z,17.91
2023-09-06T23:27:51.950Z,17.88
2023-09-06T23:30:22.864Z,17.85
2023-09-06T23:32:58.527Z,17.83
2023-09-06T23:35:26.905Z,17.82
2023-09-06T23:37:58.479Z,17.80
2023-09-06T23:40:26.095Z,17.78
2023-09-06T23:42:59.324Z,17.77
2023-09-06T23:45:27.415Z,17.75
2023-09-06T23:47:56.916Z,17.73
2023-09-06T23:50:29.378Z,17.71
2023-09-06T23:52:57.502Z,17.67
2023-09-06T23:55:26.717Z,17.64
2023-09-06T23:57:54.192Z,17.61
